sensor_id;sensor_type;location;lat;lon;timestamp;temperature;humidity
37088;DHT22;23002;52.676;6.432;2023-06-26T00:01:07;24.50;99.90
37088;DHT22;23002;52.676;6.432;2023-06-26T00:03:34;24.50;99.90
37088;DHT22;23002;52.676;6.432;2023-06-26T00:06:01;24.60;99.90
37088;DHT22;23002;52.676;6.432;2023-06-26T00:08:28;24.80;99.90
37088;DHT22;23002;52.676;6.432;2023-06-26T00:10:55;24.50;99.90
37088;DHT22;23002;52.676;6.432;2023-06-26T00:13:23;24.50;99.90
37088;DHT22;23002;52.676;6.432;2023-06-26T00:15:51;24.50;99.90
37088;DHT22;23002;52.676;6.432;2023-06-26T00:18:18;24.20;99.90
37088;DHT22;23002;52.676;6.432;2023-06-26T00:20:45;24.20;99.90
37088;DHT22;23002;52.676;6.432;2023-06-26T00:23:12;24.10;99.90
37088;DHT22;23002;52.676;6.432;2023-06-26T00:25:40;24.20;99.90
37088;DHT22;23002;52.676;6.432;2023-06-26T00:28:06;24.20;99.90
37088;DHT22;23002;52.676;6.432;2023-06-26T00:30:33;24.20;99.90
37088;DHT22;23002;52.676;6.432;2023-06-26T00:33:01;24.20;99.90
37088;DHT22;23002;52.676;6.432;2023-06-26T00:35:28;24.00;99.90
37088;DHT22;23002;52.676;6.432;2023-06-26T00:37:55;24.00;99.90
37088;DHT22;23002;52.676;6.432;2023-06-26T00:40:22;24.00;99.90
37088;DHT22;23002;52.676;6.432;2023-06-26T00:42:49;24.10;99.90
37088;DHT22;23002;52.676;6.432;2023-06-26T00:45:16;23.70;99.90
37088;DHT22;23002;52.676;6.432;2023-06-26T00:50:23;24.10;99.90
37088;DHT22;23002;52.676;6.432;2023-06-26T00:52:50;23.50;99.90
37088;DHT22;23002;52.676;6.432;2023-06-26T00:55:17;23.50;99.90
37088;DHT22;23002;52.676;6.432;2023-06-26T00:57:44;23.90;99.90
37088;DHT22;23002;52.676;6.432;2023-06-26T01:00:12;24.50;99.90
37088;DHT22;23002;52.676;6.432;2023-06-26T01:02:42;24.00;99.90
37088;DHT22;23002;52.676;6.432;2023-06-26T01:05:09;23.90;99.90
37088;DHT22;23002;52.676;6.432;2023-06-26T01:07:39;24.00;99.90
37088;DHT22;23002;52.676;6.432;2023-06-26T01:10:07;23.90;99.90
37088;DHT22;23002;52.676;6.432;2023-06-26T01:12:34;23.70;99.90
37088;DHT22;23002;52.676;6.432;2023-06-26T01:20:00;23.90;99.90
37088;DHT22;23002;52.676;6.432;2023-06-26T01:25:29;23.70;99.90
37088;DHT22;23002;52.676;6.432;2023-06-26T01:28:05;23.70;99.90
37088;DHT22;23002;52.676;6.432;2023-06-26T01:30:35;23.80;99.90
37088;DHT22;23002;52.676;6.432;2023-06-26T01:33:03;24.30;99.90
37088;DHT22;23002;52.676;6.432;2023-06-26T01:35:31;23.50;99.90
37088;DHT22;23002;52.676;6.432;2023-06-26T01:38:21;23.60;99.90
37088;DHT22;23002;52.676;6.432;2023-06-26T01:40:50;23.10;99.90
37088;DHT22;23002;52.676;6.432;2023-06-26T01:48:59;23.50;99.90
37088;DHT22;23002;52.676;6.432;2023-06-26T01:51:37;22.00;99.90
37088;DHT22;23002;52.676;6.432;2023-06-26T01:54:09;24.10;99.90
37088;DHT22;23002;52.676;6.432;2023-06-26T01:56:36;23.40;99.90
37088;DHT22;23002;52.676;6.432;2023-06-26T01:59:05;23.30;99.90
37088;DHT22;23002;52.676;6.432;2023-06-26T02:01:34;23.30;99.90
37088;DHT22;23002;52.676;6.432;2023-06-26T02:04:01;23.30;99.90
37088;DHT22;23002;52.676;6.432;2023-06-26T02:06:28;23.30;99.90
37088;DHT22;23002;52.676;6.432;2023-06-26T02:08:54;23.20;99.90
37088;DHT22;23002;52.676;6.432;2023-06-26T02:11:23;22.40;99.90
37088;DHT22;23002;52.676;6.432;2023-06-26T02:13:50;23.10;99.90
37088;DHT22;23002;52.676;6.432;2023-06-26T02:16:16;23.30;99.90
37088;DHT22;23002;52.676;6.432;2023-06-26T02:18:43;23.20;99.90
37088;DHT22;23002;52.676;6.432;2023-06-26T02:21:10;23.10;99.90
37088;DHT22;23002;52.676;6.432;2023-06-26T02:23:37;23.10;99.90
37088;DHT22;23002;52.676;6.432;2023-06-26T02:26:04;23.10;99.90
37088;DHT22;23002;52.676;6.432;2023-06-26T02:28:31;23.20;99.90
37088;DHT22;23002;52.676;6.432;2023-06-26T02:31:00;22.90;99.90
37088;DHT22;23002;52.676;6.432;2023-06-26T02:33:27;23.10;99.90
37088;DHT22;23002;52.676;6.432;2023-06-26T02:35:54;22.70;99.90
37088;DHT22;23002;52.676;6.432;2023-06-26T02:38:21;23.00;99.90
37088;DHT22;23002;52.676;6.432;2023-06-26T02:40:48;23.00;99.90
37088;DHT22;23002;52.676;6.432;2023-06-26T02:43:15;22.90;99.90
37088;DHT22;23002;52.676;6.432;2023-06-26T02:45:42;22.90;99.90
37088;DHT22;23002;52.676;6.432;2023-06-26T02:48:09;23.00;99.90
37088;DHT22;23002;52.676;6.432;2023-06-26T02:50:36;22.90;99.90
37088;DHT22;23002;52.676;6.432;2023-06-26T02:53:03;23.00;99.90
37088;DHT22;23002;52.676;6.432;2023-06-26T02:55:30;22.90;99.90
37088;DHT22;23002;52.676;6.432;2023-06-26T02:57:56;22.90;99.90
37088;DHT22;23002;52.676;6.432;2023-06-26T03:00:23;22.80;99.90
37088;DHT22;23002;52.676;6.432;2023-06-26T03:02:50;22.90;99.90
37088;DHT22;23002;52.676;6.432;2023-06-26T03:05:17;22.90;99.90
37088;DHT22;23002;52.676;6.432;2023-06-26T03:07:44;22.80;99.90
37088;DHT22;23002;52.676;6.432;2023-06-26T03:10:10;22.80;99.90
37088;DHT22;23002;52.676;6.432;2023-06-26T03:12:37;22.80;99.90
37088;DHT22;23002;52.676;6.432;2023-06-26T03:15:04;22.70;99.90
37088;DHT22;23002;52.676;6.432;2023-06-26T03:17:31;22.80;99.90
37088;DHT22;23002;52.676;6.432;2023-06-26T03:19:58;22.80;99.90
37088;DHT22;23002;52.676;6.432;2023-06-26T03:22:25;22.80;99.90
37088;DHT22;23002;52.676;6.432;2023-06-26T03:24:52;22.70;99.90
37088;DHT22;23002;52.676;6.432;2023-06-26T03:27:18;22.80;99.90
37088;DHT22;23002;52.676;6.432;2023-06-26T03:29:46;23.10;99.90
37088;DHT22;23002;52.676;6.432;2023-06-26T03:32:13;22.80;99.90
37088;DHT22;23002;52.676;6.432;2023-06-26T03:34:40;22.80;99.90
37088;DHT22;23002;52.676;6.432;2023-06-26T03:37:06;22.80;99.90
37088;DHT22;23002;52.676;6.432;2023-06-26T03:39:33;22.80;99.90
37088;DHT22;23002;52.676;6.432;2023-06-26T03:42:00;22.80;99.90
37088;DHT22;23002;52.676;6.432;2023-06-26T03:46:56;22.90;99.90
37088;DHT22;23002;52.676;6.432;2023-06-26T03:49:22;23.40;99.90
37088;DHT22;23002;52.676;6.432;2023-06-26T03:54:16;23.10;99.90
37088;DHT22;23002;52.676;6.432;2023-06-26T03:56:43;23.20;99.90
37088;DHT22;23002;52.676;6.432;2023-06-26T03:59:10;23.30;99.90
37088;DHT22;23002;52.676;6.432;2023-06-26T04:01:38;23.60;99.90
37088;DHT22;23002;52.676;6.432;2023-06-26T04:04:04;23.80;99.90
37088;DHT22;23002;52.676;6.432;2023-06-26T04:06:31;23.80;99.90
37088;DHT22;23002;52.676;6.432;2023-06-26T04:08:59;24.00;99.90
37088;DHT22;23002;52.676;6.432;2023-06-26T04:11:26;24.20;99.90
37088;DHT22;23002;52.676;6.432;2023-06-26T04:13:53;24.30;99.90
37088;DHT22;23002;52.676;6.432;2023-06-26T04:18:52;24.50;99.90
37088;DHT22;23002;52.676;6.432;2023-06-26T04:21:19;23.60;99.90
37088;DHT22;23002;52.676;6.432;2023-06-26T04:23:48;24.70;99.90
37088;DHT22;23002;52.676;6.432;2023-06-26T04:26:15;24.70;99.90
37088;DHT22;23002;52.676;6.432;2023-06-26T04:28:42;24.70;99.90
37088;DHT22;23002;52.676;6.432;2023-06-26T04:31:09;25.00;99.90
37088;DHT22;23002;52.676;6.432;2023-06-26T04:33:37;24.80;99.90
37088;DHT22;23002;52.676;6.432;2023-06-26T04:36:08;24.90;99.90
37088;DHT22;23002;52.676;6.432;2023-06-26T04:38:35;24.60;99.90
37088;DHT22;23002;52.676;6.432;2023-06-26T04:41:02;24.50;99.90
37088;DHT22;23002;52.676;6.432;2023-06-26T04:43:29;24.40;99.90
37088;DHT22;23002;52.676;6.432;2023-06-26T04:45:56;24.50;99.90
37088;DHT22;23002;52.676;6.432;2023-06-26T04:48:23;24.40;99.90
37088;DHT22;23002;52.676;6.432;2023-06-26T04:50:50;24.50;99.90
37088;DHT22;23002;52.676;6.432;2023-06-26T04:53:21;24.60;99.90
37088;DHT22;23002;52.676;6.432;2023-06-26T04:55:53;24.80;99.90
37088;DHT22;23002;52.676;6.432;2023-06-26T04:58:20;24.80;99.90
37088;DHT22;23002;52.676;6.432;2023-06-26T05:00:47;24.80;99.90
37088;DHT22;23002;52.676;6.432;2023-06-26T05:03:16;24.70;99.90
37088;DHT22;23002;52.676;6.432;2023-06-26T05:05:44;24.60;99.90
37088;DHT22;23002;52.676;6.432;2023-06-26T05:08:15;24.40;99.90
37088;DHT22;23002;52.676;6.432;2023-06-26T05:10:43;24.40;99.90
37088;DHT22;23002;52.676;6.432;2023-06-26T05:13:10;24.30;99.90
37088;DHT22;23002;52.676;6.432;2023-06-26T05:15:37;24.20;99.90
37088;DHT22;23002;52.676;6.432;2023-06-26T05:18:04;24.20;99.90
37088;DHT22;23002;52.676;6.432;2023-06-26T05:20:32;24.50;99.90
37088;DHT22;23002;52.676;6.432;2023-06-26T05:22:59;24.70;99.90
37088;DHT22;23002;52.676;6.432;2023-06-26T05:25:26;25.70;99.90
37088;DHT22;23002;52.676;6.432;2023-06-26T05:27:56;25.90;99.90
37088;DHT22;23002;52.676;6.432;2023-06-26T05:30:24;25.80;99.90
37088;DHT22;23002;52.676;6.432;2023-06-26T05:32:54;25.40;99.90
37088;DHT22;23002;52.676;6.432;2023-06-26T05:35:22;25.00;99.90
37088;DHT22;23002;52.676;6.432;2023-06-26T05:37:50;24.70;99.90
37088;DHT22;23002;52.676;6.432;2023-06-26T05:40:18;24.60;99.90
37088;DHT22;23002;52.676;6.432;2023-06-26T05:42:45;24.60;99.90
37088;DHT22;23002;52.676;6.432;2023-06-26T05:45:13;24.80;99.90
37088;DHT22;23002;52.676;6.432;2023-06-26T05:47:39;25.40;99.90
37088;DHT22;23002;52.676;6.432;2023-06-26T05:50:08;26.80;99.90
